Home > Products > Valid Products > TAF

000
FTUS43 KLBF 052300
TAFVTN
TAF
KVTN 052325Z 0600/0624 27010KT P6SM SKC
      TEMPO 0600/0602 BKN100
     FM061400 27010KT P6SM SCT250=



000
FTUS43 KLBF 052300
TAFLBF
TAF
KLBF 052325Z 0600/0624 26007KT P6SM SKC
     FM061700 29012KT P6SM SCT250
     FM062000 29010G19KT P6SM SCT250=



000
FTUS43 KLBF 051700
TAFVTN
TAF
KVTN 051720Z 0518/0618 22010KT P6SM SCT100
     FM060000 27005KT P6SM SKC
     FM061600 28010KT P6SM BKN090=



000
FTUS43 KLBF 051700
TAFLBF
TAF
KLBF 051720Z 0518/0618 23011KT P6SM SKC
     FM060000 29005KT P6SM SKC
     FM061700 30012KT P6SM SCT120=



000
FTUS43 KLBF 051100
TAFVTN
TAF
KVTN 051120Z 0512/0612 22006KT P6SM SKC
     FM051700 23010KT P6SM SCT100
     FM060000 27009KT P6SM SCT150=



000
FTUS43 KLBF 051100
TAFLBF
TAF
KLBF 051120Z 0512/0612 25005KT P6SM SKC
     FM052000 24010KT P6SM SCT120
     FM060000 27005KT P6SM SCT250=



000
FTUS43 KLBF 050500
TAFVTN
TAF
KVTN 050535Z 0506/0606 VRB06KT P6SM SKC
     FM051900 23008KT P6SM SKC
     FM052200 25007KT P6SM SCT250=



000
FTUS43 KLBF 050500
TAFLBF
TAF
KLBF 050535Z 0506/0606 VRB06KT P6SM SKC
     FM051600 25010KT P6SM SKC
     FM060000 24005KT P6SM SCT250=



000
FTUS43 KLBF 050500
TAFVTN
TAF
KVTN 050535Z 0506/0606 VRB06KT P6SM SKC
     FM051900 23008KT P6SM SKC
     FM052200 25007KT P6SM SCT250=



000
FTUS43 KLBF 050500
TAFLBF
TAF
KLBF 050535Z 0506/0606 VRB06KT P6SM SKC
     FM051600 25010KT P6SM SKC
     FM060000 24005KT P6SM SCT250=



000
FTUS43 KLBF 042300
TAFLBF
TAF
KLBF 042325Z 0500/0524 33012G22KT P6SM SKC
     FM050200 32005KT P6SM SKC
     FM051400 25010KT P6SM SKC=



000
FTUS43 KLBF 042300
TAFVTN
TAF
KVTN 042325Z 0500/0524 34012KT P6SM SCT030
     FM050200 VRB06KT P6SM SKC
     FM051900 25008KT P6SM SCT250=



000
FTUS43 KLBF 041700
TAFLBF
TAF
KLBF 041740Z 0418/0518 32015KT P6SM SCT040
     FM050000 VRB04KT P6SM SKC=



000
FTUS43 KLBF 041700
TAFVTN
TAF
KVTN 041740Z 0418/0518 33015KT P6SM SCT040
     FM050000 VRB06KT P6SM SKC=



000
FTUS43 KLBF 041700
TAFVTN
TAF
KVTN 041740Z 0418/0518 33015KT P6SM SCT040
     FM050000 VRB06KT P6SM SKC=



000
FTUS43 KLBF 041700
TAFLBF
TAF
KLBF 041740Z 0418/0518 32015KT P6SM SCT040
     FM050000 VRB04KT P6SM SKC=



000
FTUS43 KLBF 041100
TAFVTN
TAF
KVTN 041124Z 0412/0512 29010KT P6SM SKC
     FM041600 32015G24KT P6SM SCT050
     FM050000 30005KT P6SM SKC=



000
FTUS43 KLBF 041100
TAFLBF
TAF
KLBF 041124Z 0412/0512 32007KT P6SM SCT080
     FM041800 33014G20KT P6SM SCT090
     FM050000 30004KT P6SM SKC=



000
FTUS43 KLBF 041100
TAFVTN
TAF
KVTN 041124Z 0412/0512 29010KT P6SM SKC
     FM041600 32015G24KT P6SM SCT050
     FM050000 30005KT P6SM SKC=



000
FTUS43 KLBF 041100
TAFLBF
TAF
KLBF 041124Z 0412/0512 32007KT P6SM SCT080
     FM041800 33014G20KT P6SM SCT090
     FM050000 30004KT P6SM SKC=



000
FTUS43 KLBF 040600 AAA
TAFLBF
TAF AMD
KLBF 040651Z 0407/0506 03005KT P6SM OVC060
      TEMPO 0407/0409 5SM -SN OVC035
     FM040900 33006KT P6SM OVC050
     FM041500 33006KT P6SM SCT250=



000
FTUS43 KLBF 040600 AAA
TAFLBF
TAF AMD
KLBF 040651Z 0407/0506 03005KT P6SM OVC060
      TEMPO 0407/0409 5SM -SN OVC035
     FM040900 33006KT P6SM OVC050
     FM041500 33006KT P6SM SCT250=



000
FTUS43 KLBF 040500
TAFVTN
TAF
KVTN 040528Z 0406/0506 31008KT P6SM FEW110
     FM041500 32012G20KT P6SM SCT250=



000
FTUS43 KLBF 040500
TAFLBF
TAF
KLBF 040528Z 0406/0506 36003KT 6SM -SN SCT012 OVC026
      TEMPO 0406/0409 3SM -SN BKN012 OVC035
     FM040900 33006KT P6SM OVC050
     FM041500 33006KT P6SM SCT250=



000
FTUS43 KLBF 040500
TAFVTN
TAF
KVTN 040528Z 0406/0506 31008KT P6SM FEW110
     FM041500 32012G20KT P6SM SCT250=



000
FTUS43 KLBF 040500
TAFLBF
TAF
KLBF 040528Z 0406/0506 36003KT 6SM -SN SCT012 OVC026
      TEMPO 0406/0409 3SM -SN BKN012 OVC035
     FM040900 33006KT P6SM OVC050
     FM041500 33006KT P6SM SCT250=



000
FTUS43 KLBF 040500 AAA
TAFLBF
TAF AMD
KLBF 040524Z 0405/0424 36003KT 6SM -SN BR OVC026
      TEMPO 0405/0409 3SM -SN SCT012 OVC035
     FM040900 33006KT P6SM OVC050
     FM041500 33006KT P6SM SCT250=



000
FTUS43 KLBF 040400 AAB
TAFLBF
TAF AMD
KLBF 040428Z 0404/0424 36011KT P6SM SCT012 OVC040
      TEMPO 0404/0405 1SM -SN BKN008 OVC040
     FM040500 35008KT 3SM -SN OVC008
      TEMPO 0407/0409 6SM -SN SCT012 OVC035
     FM040900 33006KT P6SM OVC050
     FM041500 33006KT P6SM SCT250=



000
FTUS43 KLBF 040300 AAA
TAFLBF
TAF AMD
KLBF 040324Z 0403/0424 36011KT P6SM SCT012 OVC040
      TEMPO 0404/0407 2SM -SN BKN012 OVC040
     FM040700 35008KT 2SM -SN OVC012
      TEMPO 0407/0409 6SM -SN SCT012 OVC035
     FM040900 33006KT P6SM OVC050
     FM041500 33006KT P6SM SCT250=



000
FTUS43 KLBF 040200 AAA
TAFVTN
TAF AMD
KVTN 040238Z 0403/0424 30006KT P6SM OVC090
     FM041500 32012G20KT P6SM SCT250=



000
FTUS43 KLBF 040200 AAA
TAFVTN
TAF AMD
KVTN 040238Z 0403/0424 30006KT P6SM OVC090
     FM041500 32012G20KT P6SM SCT250=



000
FTUS43 KLBF 040000 AAA
TAFLBF
TAF AMD
KLBF 040009Z 0400/0424 36011KT P6SM BKN120
      TEMPO 0403/0405 2SM -SN BKN012 OVC035
     FM040500 35008KT 2SM -SN OVC012
      TEMPO 0407/0409 6SM -SN SCT012 OVC035
     FM040900 33006KT P6SM OVC050
     FM041500 33006KT P6SM SCT250=



000
FTUS43 KLBF 040000 AAA
TAFLBF
TAF AMD
KLBF 040009Z 0400/0424 36011KT P6SM BKN120
      TEMPO 0403/0405 2SM -SN BKN012 OVC035
     FM040500 35008KT 2SM -SN OVC012
      TEMPO 0407/0409 6SM -SN SCT012 OVC035
     FM040900 33006KT P6SM OVC050
     FM041500 33006KT P6SM SCT250=



000
FTUS43 KLBF 032300
TAFLBF
TAF
KLBF 032320Z 0400/0424 35016G22KT P6SM SCT035 BKN250
      TEMPO 0403/0405 2SM -SN BKN012 OVC035
     FM040500 35008KT 2SM -SN OVC012
      TEMPO 0407/0409 6SM -SN SCT012 OVC035
     FM040900 33006KT P6SM OVC050
     FM041500 33006KT P6SM SCT250=



000
FTUS43 KLBF 032300
TAFVTN
TAF
KVTN 032320Z 0400/0424 34014KT P6SM OVC100
     FM040300 30010KT P6SM BKN250
     FM041500 32012G20KT P6SM SCT250=



000
FTUS43 KLBF 031700
TAFLBF
TAF
KLBF 031736Z 0318/0418 36018G27KT P6SM BKN035 BKN100 BKN200
     FM040000 01012KT P6SM BKN060 OVC100
      TEMPO 0403/0407 2SM -SN OVC025
     FM040700 33006KT P6SM OVC060=



000
FTUS43 KLBF 031700
TAFVTN
TAF
KVTN 031736Z 0318/0418 34022G34KT P6SM BKN060 BKN110 BKN200
     FM040000 31008KT P6SM SCT030 BKN120=



000
FTUS43 KLBF 031700
TAFVTN
TAF
KVTN 031736Z 0318/0418 34022G34KT P6SM BKN060 BKN110 BKN200
     FM040000 31008KT P6SM SCT030 BKN120=



000
FTUS43 KLBF 031700
TAFLBF
TAF
KLBF 031736Z 0318/0418 36018G27KT P6SM BKN035 BKN100 BKN200
     FM040000 01012KT P6SM BKN060 OVC100
      TEMPO 0403/0407 2SM -SN OVC025
     FM040700 33006KT P6SM OVC060=



000
FTUS43 KLBF 031300 AAB
TAFLBF
TAF AMD
KLBF 031320Z 0313/0412 35024G35KT P6SM OVC015
      TEMPO 0313/0315 5SM -SHSN OVC015
     FM031600 35023G32KT P6SM OVC020
     FM032100 35015G24KT P6SM SCT025 BKN120
     FM040000 36009KT P6SM OVC120 PROB30 0404/0408 4SM -SN OVC040=



000
FTUS43 KLBF 031200 AAB
TAFVTN
TAF AMD
KVTN 031259Z 0313/0412 34020G30KT 4SM -SN BKN030 OVC070
      TEMPO 0313/0315 2SM -SN OVC020
     FM031600 34024G34KT P6SM -SN OVC030
     FM032200 33018G30KT P6SM SCT035 BKN100
     FM040000 31010KT P6SM SCT030 BKN120=



000
FTUS43 KLBF 031200 AAB
TAFVTN
TAF AMD
KVTN 031259Z 0313/0412 34020G30KT 4SM -SN BKN030 OVC070
      TEMPO 0313/0315 2SM -SN OVC020
     FM031600 34024G34KT P6SM -SN OVC030
     FM032200 33018G30KT P6SM SCT035 BKN100
     FM040000 31010KT P6SM SCT030 BKN120=



000
FTUS43 KLBF 031200 AAA
TAFLBF
TAF AMD
KLBF 031257Z 0313/0412 28007KT P6SM OVC015
      TEMPO 0313/0314 5SM -SHSN OVC015
     FM031400 35024G35KT P6SM OVC020
     FM032100 35015G24KT P6SM SCT025 BKN120
     FM040000 36009KT P6SM OVC120 PROB30 0404/0408 4SM -SN OVC040=



000
FTUS43 KLBF 031200 AAA
TAFVTN
TAF AMD
KVTN 031241Z 0313/0412 34026G36KT 3SM -SN BR OVC025
      TEMPO 0313/0315 1SM -SN BLSN OVC018
     FM031600 34024G34KT P6SM -SN OVC020
     FM032200 33018G30KT P6SM SCT020 BKN100
     FM040000 31010KT P6SM SCT030 BKN120=



000
FTUS43 KLBF 031200 AAA
TAFVTN
TAF AMD
KVTN 031241Z 0313/0412 34026G36KT 3SM -SN BR OVC025
      TEMPO 0313/0315 1SM -SN BLSN OVC018
     FM031600 34024G34KT P6SM -SN OVC020
     FM032200 33018G30KT P6SM SCT020 BKN100
     FM040000 31010KT P6SM SCT030 BKN120=



000
FTUS43 KLBF 031100
TAFVTN
TAF
KVTN 031120Z 0312/0412 34024G34KT 3SM -SN BR BKN010 OVC018
      TEMPO 0312/0315 3/4SM -SN BLSN OVC010
     FM031600 34024G34KT P6SM -SN OVC015
     FM032200 33018G30KT P6SM SCT020 BKN100
     FM040000 31010KT P6SM SCT030 BKN120=



000
FTUS43 KLBF 031100
TAFLBF
TAF
KLBF 031120Z 0312/0412 31008KT P6SM OVC005
      TEMPO 0312/0314 5SM -SHSN OVC013
     FM031400 35024G35KT P6SM OVC020
     FM032100 35015G24KT P6SM SCT025 BKN120
     FM040000 36009KT P6SM OVC120 PROB30 0404/0408 4SM -SN OVC040=



000
FTUS43 KLBF 030900 AAC
TAFVTN
TAF AMD
KVTN 030943Z 0310/0406 34022G34KT 3SM -SN BR OVC015
      TEMPO 0310/0314 1SM -SN BR OVC010
     FM031600 34024G34KT P6SM -SN OVC015
     FM032100 34018G29KT P6SM SCT015 BKN250=



000
FTUS43 KLBF 030900 AAB
TAFVTN
TAF AMD
KVTN 030915Z 0309/0406 24004KT 3SM -SN BR OVC020
     FM031000 34022G34KT 3SM -SN BR OVC015
      TEMPO 0311/0314 1SM -SN BR OVC010
     FM031600 34024G34KT P6SM -SN OVC015
     FM032100 34018G29KT P6SM SCT015 BKN250=



000
FTUS43 KLBF 030800 AAA
TAFLBF
TAF AMD
KLBF 030854Z 0309/0406 13003KT P6SM OVC013
      TEMPO 0310/0312 2SM -FZDZ BR OVC007
     FM031200 31013G20KT P6SM OVC013
      TEMPO 0312/0314 3SM -SHSN OVC013
     FM031400 34020G35KT P6SM OVC025
     FM040000 36014G24KT P6SM SCT025 BKN250=



000
FTUS43 KLBF 030800 AAA
TAFLBF
TAF AMD
KLBF 030854Z 0309/0406 13003KT P6SM OVC013
      TEMPO 0310/0312 2SM -FZDZ BR OVC007
     FM031200 31013G20KT P6SM OVC013
      TEMPO 0312/0314 3SM -SHSN OVC013
     FM031400 34020G35KT P6SM OVC025
     FM040000 36014G24KT P6SM SCT025 BKN250=



000
FTUS43 KLBF 030800 AAA
TAFVTN
TAF AMD
KVTN 030851Z 0309/0406 19004KT 5SM BR OVC020
     FM031100 34022G34KT 5SM -SN BR OVC015
      TEMPO 0311/0314 1SM -SN BR OVC010
     FM031600 34024G34KT P6SM -SN OVC015
     FM032100 34018G29KT P6SM SCT015 BKN250=



000
FTUS43 KLBF 030800 AAA
TAFVTN
TAF AMD
KVTN 030851Z 0309/0406 19004KT 5SM BR OVC020
     FM031100 34022G34KT 5SM -SN BR OVC015
      TEMPO 0311/0314 1SM -SN BR OVC010
     FM031600 34024G34KT P6SM -SN OVC015
     FM032100 34018G29KT P6SM SCT015 BKN250=



000
FTUS43 KLBF 030500
TAFVTN
TAF
KVTN 030521Z 0306/0406 20011KT P6SM SCT018 OVC026
      TEMPO 0306/0308 3SM -SHSN OVC018
     FM030800 35014G24KT 2SM -SN BR OVC008
      TEMPO 0309/0312 3/4SM -SN BR
     FM031500 34022G34KT P6SM OVC015
     FM032100 34018G29KT P6SM SCT015 BKN250=



000
FTUS43 KLBF 030500
TAFLBF
TAF
KLBF 030521Z 0306/0406 14011KT P6SM SCT008 OVC014
      TEMPO 0306/0310 4SM -FZDZ BR BKN008
     FM031000 35018G24KT P6SM OVC008
      TEMPO 0310/0314 5SM -SHSN SCT008 OVC015
     FM031400 35023G30KT P6SM OVC025
     FM040000 36014G24KT P6SM SCT025 BKN250=



000
FTUS43 KLBF 030400 AAA
TAFVTN
TAF AMD
KVTN 030435Z 0305/0324 20009KT P6SM SCT008 BKN024 OVC035
      TEMPO 0305/0308 3SM -SHSN OVC008
     FM030800 35014G24KT 2SM -SN BR OVC008
      TEMPO 0309/0312 3/4SM -SN BR
     FM031500 34022G34KT P6SM OVC015=



000
FTUS43 KLBF 030400 AAA
TAFVTN
TAF AMD
KVTN 030435Z 0305/0324 20009KT P6SM SCT008 BKN024 OVC035
      TEMPO 0305/0308 3SM -SHSN OVC008
     FM030800 35014G24KT 2SM -SN BR OVC008
      TEMPO 0309/0312 3/4SM -SN BR
     FM031500 34022G34KT P6SM OVC015=



000
FTUS43 KLBF 030400 AAA
TAFLBF
TAF AMD
KLBF 030433Z 0305/0324 15008KT P6SM SCT008 OVC014
     FM030600 14010KT P6SM OVC005
      TEMPO 0306/0310 4SM -FZDZ BKN008
     FM031000 35018G24KT P6SM OVC008
      TEMPO 0310/0314 5SM -SHSN SCT008 OVC015
     FM031400 35023G30KT P6SM OVC025=



    US Dept of Commerce
    National Oceanic and Atmospheric Administration
    National Weather Service
    1325 East West Highway
    Silver Spring, MD 20910
    Page Author: NWS Internet Services Team
Disclaimer
Information Quality
Credits
Glossary
Privacy Policy
Freedom of Information Act (FOIA)
About Us
Career Opportunities